sensor_id;sensor_type;location;lat;lon;timestamp;P1;durP1;ratioP1;P2;durP2;ratioP2
76136;SDS011;68622;53.128;17.966;2023-04-06T00:00:07;74.40;;;25.50;;
76136;SDS011;68622;53.128;17.966;2023-04-06T00:02:55;67.20;;;23.50;;
76136;SDS011;68622;53.128;17.966;2023-04-06T00:05:22;73.30;;;24.30;;
76136;SDS011;68622;53.128;17.966;2023-04-06T00:07:49;75.00;;;24.80;;
76136;SDS011;68622;53.128;17.966;2023-04-06T00:10:16;66.50;;;24.80;;
76136;SDS011;68622;53.128;17.966;2023-04-06T00:12:43;72.20;;;24.70;;
76136;SDS011;68622;53.128;17.966;2023-04-06T00:15:10;75.40;;;25.60;;
76136;SDS011;68622;53.128;17.966;2023-04-06T00:17:37;71.00;;;24.90;;
76136;SDS011;68622;53.128;17.966;2023-04-06T00:20:04;71.90;;;26.70;;
76136;SDS011;68622;53.128;17.966;2023-04-06T00:22:31;70.50;;;25.90;;
76136;SDS011;68622;53.128;17.966;2023-04-06T00:24:57;87.60;;;28.20;;
76136;SDS011;68622;53.128;17.966;2023-04-06T00:27:24;84.90;;;28.10;;
76136;SDS011;68622;53.128;17.966;2023-04-06T00:29:51;78.30;;;28.90;;
76136;SDS011;68622;53.128;17.966;2023-04-06T00:32:17;82.00;;;30.40;;
76136;SDS011;68622;53.128;17.966;2023-04-06T00:34:44;85.60;;;30.70;;
76136;SDS011;68622;53.128;17.966;2023-04-06T00:37:11;93.00;;;30.70;;
76136;SDS011;68622;53.128;17.966;2023-04-06T00:39:38;81.30;;;30.20;;
76136;SDS011;68622;53.128;17.966;2023-04-06T00:42:10;87.90;;;29.70;;
76136;SDS011;68622;53.128;17.966;2023-04-06T00:44:41;75.10;;;28.60;;
76136;SDS011;68622;53.128;17.966;2023-04-06T00:47:08;85.60;;;33.70;;
76136;SDS011;68622;53.128;17.966;2023-04-06T00:49:35;88.20;;;32.60;;
76136;SDS011;68622;53.128;17.966;2023-04-06T00:52:01;79.50;;;29.20;;
76136;SDS011;68622;53.128;17.966;2023-04-06T00:54:28;92.90;;;34.00;;
76136;SDS011;68622;53.128;17.966;2023-04-06T00:56:57;84.10;;;31.80;;
76136;SDS011;68622;53.128;17.966;2023-04-06T00:59:24;77.80;;;28.60;;
76136;SDS011;68622;53.128;17.966;2023-04-06T01:01:53;80.70;;;31.30;;
76136;SDS011;68622;53.128;17.966;2023-04-06T01:04:43;80.50;;;29.20;;
76136;SDS011;68622;53.128;17.966;2023-04-06T01:07:15;76.00;;;26.60;;
76136;SDS011;68622;53.128;17.966;2023-04-06T01:09:49;70.50;;;28.20;;
76136;SDS011;68622;53.128;17.966;2023-04-06T01:12:20;70.00;;;27.90;;
76136;SDS011;68622;53.128;17.966;2023-04-06T01:14:47;73.50;;;28.10;;
76136;SDS011;68622;53.128;17.966;2023-04-06T01:17:14;77.20;;;26.50;;
76136;SDS011;68622;53.128;17.966;2023-04-06T01:19:42;71.70;;;27.40;;
76136;SDS011;68622;53.128;17.966;2023-04-06T01:22:15;68.90;;;26.70;;
76136;SDS011;68622;53.128;17.966;2023-04-06T01:24:50;73.90;;;27.20;;
76136;SDS011;68622;53.128;17.966;2023-04-06T01:27:22;79.70;;;27.00;;
76136;SDS011;68622;53.128;17.966;2023-04-06T01:30:01;77.60;;;28.40;;
76136;SDS011;68622;53.128;17.966;2023-04-06T01:32:44;75.90;;;28.50;;
76136;SDS011;68622;53.128;17.966;2023-04-06T01:35:12;81.50;;;30.40;;
76136;SDS011;68622;53.128;17.966;2023-04-06T01:37:44;86.00;;;31.20;;
76136;SDS011;68622;53.128;17.966;2023-04-06T01:40:13;88.50;;;32.80;;
76136;SDS011;68622;53.128;17.966;2023-04-06T01:42:47;94.50;;;32.50;;
76136;SDS011;68622;53.128;17.966;2023-04-06T01:45:16;96.40;;;34.60;;
76136;SDS011;68622;53.128;17.966;2023-04-06T01:47:43;100.80;;;35.70;;
76136;SDS011;68622;53.128;17.966;2023-04-06T01:50:12;103.50;;;37.50;;
76136;SDS011;68622;53.128;17.966;2023-04-06T01:52:42;93.30;;;33.00;;
76136;SDS011;68622;53.128;17.966;2023-04-06T01:55:10;90.70;;;34.00;;
76136;SDS011;68622;53.128;17.966;2023-04-06T01:57:52;103.40;;;35.00;;
76136;SDS011;68622;53.128;17.966;2023-04-06T02:00:29;104.30;;;36.40;;
76136;SDS011;68622;53.128;17.966;2023-04-06T02:02:56;90.40;;;34.20;;
76136;SDS011;68622;53.128;17.966;2023-04-06T02:05:25;82.80;;;33.20;;
76136;SDS011;68622;53.128;17.966;2023-04-06T02:07:53;92.80;;;31.40;;
76136;SDS011;68622;53.128;17.966;2023-04-06T02:10:23;85.10;;;30.40;;
76136;SDS011;68622;53.128;17.966;2023-04-06T02:12:50;81.40;;;29.80;;
76136;SDS011;68622;53.128;17.966;2023-04-06T02:15:21;85.40;;;31.20;;
76136;SDS011;68622;53.128;17.966;2023-04-06T02:17:47;85.20;;;28.90;;
76136;SDS011;68622;53.128;17.966;2023-04-06T02:20:14;83.10;;;29.10;;
76136;SDS011;68622;53.128;17.966;2023-04-06T02:22:41;82.60;;;29.20;;
76136;SDS011;68622;53.128;17.966;2023-04-06T02:25:07;92.90;;;31.90;;
76136;SDS011;68622;53.128;17.966;2023-04-06T02:27:34;93.30;;;34.70;;
76136;SDS011;68622;53.128;17.966;2023-04-06T02:30:02;95.20;;;35.30;;
76136;SDS011;68622;53.128;17.966;2023-04-06T02:32:30;79.20;;;29.20;;
76136;SDS011;68622;53.128;17.966;2023-04-06T02:34:57;76.90;;;27.30;;
76136;SDS011;68622;53.128;17.966;2023-04-06T02:37:24;71.00;;;26.50;;
76136;SDS011;68622;53.128;17.966;2023-04-06T02:39:51;78.10;;;28.80;;
76136;SDS011;68622;53.128;17.966;2023-04-06T02:42:18;78.60;;;28.20;;
76136;SDS011;68622;53.128;17.966;2023-04-06T02:44:45;75.20;;;27.40;;
76136;SDS011;68622;53.128;17.966;2023-04-06T02:47:12;77.20;;;26.90;;
76136;SDS011;68622;53.128;17.966;2023-04-06T02:49:39;84.60;;;28.00;;
76136;SDS011;68622;53.128;17.966;2023-04-06T02:52:06;91.30;;;31.70;;
76136;SDS011;68622;53.128;17.966;2023-04-06T02:54:35;111.10;;;39.30;;
76136;SDS011;68622;53.128;17.966;2023-04-06T02:57:02;91.10;;;32.30;;
76136;SDS011;68622;53.128;17.966;2023-04-06T02:59:38;70.50;;;25.70;;
76136;SDS011;68622;53.128;17.966;2023-04-06T03:02:15;61.10;;;23.90;;
76136;SDS011;68622;53.128;17.966;2023-04-06T03:04:43;64.00;;;24.30;;
76136;SDS011;68622;53.128;17.966;2023-04-06T03:07:19;49.60;;;20.50;;
76136;SDS011;68622;53.128;17.966;2023-04-06T03:09:46;53.50;;;19.10;;
76136;SDS011;68622;53.128;17.966;2023-04-06T03:12:12;55.40;;;20.70;;
76136;SDS011;68622;53.128;17.966;2023-04-06T03:14:57;55.40;;;21.30;;
76136;SDS011;68622;53.128;17.966;2023-04-06T03:17:25;54.10;;;20.00;;
76136;SDS011;68622;53.128;17.966;2023-04-06T03:19:54;63.30;;;23.50;;
76136;SDS011;68622;53.128;17.966;2023-04-06T03:22:21;59.10;;;22.90;;
76136;SDS011;68622;53.128;17.966;2023-04-06T03:24:48;59.00;;;22.40;;
76136;SDS011;68622;53.128;17.966;2023-04-06T03:27:15;56.20;;;23.30;;
76136;SDS011;68622;53.128;17.966;2023-04-06T03:29:41;70.00;;;26.60;;
76136;SDS011;68622;53.128;17.966;2023-04-06T03:32:08;64.90;;;24.40;;
76136;SDS011;68622;53.128;17.966;2023-04-06T03:34:39;60.10;;;24.00;;
76136;SDS011;68622;53.128;17.966;2023-04-06T03:37:05;63.50;;;23.00;;
76136;SDS011;68622;53.128;17.966;2023-04-06T03:39:32;55.90;;;23.50;;
76136;SDS011;68622;53.128;17.966;2023-04-06T03:41:59;52.00;;;21.20;;
76136;SDS011;68622;53.128;17.966;2023-04-06T03:44:33;70.90;;;31.70;;
76136;SDS011;68622;53.128;17.966;2023-04-06T03:46:59;54.80;;;22.60;;
76136;SDS011;68622;53.128;17.966;2023-04-06T03:49:26;52.20;;;20.60;;
76136;SDS011;68622;53.128;17.966;2023-04-06T03:51:55;57.80;;;24.00;;
76136;SDS011;68622;53.128;17.966;2023-04-06T03:54:22;54.70;;;21.20;;
76136;SDS011;68622;53.128;17.966;2023-04-06T03:56:49;52.50;;;20.40;;
76136;SDS011;68622;53.128;17.966;2023-04-06T03:59:16;53.00;;;20.20;;
76136;SDS011;68622;53.128;17.966;2023-04-06T04:01:42;42.30;;;19.30;;
76136;SDS011;68622;53.128;17.966;2023-04-06T04:04:09;57.40;;;20.50;;
76136;SDS011;68622;53.128;17.966;2023-04-06T04:06:36;52.00;;;21.50;;
76136;SDS011;68622;53.128;17.966;2023-04-06T04:09:03;54.70;;;21.80;;
76136;SDS011;68622;53.128;17.966;2023-04-06T04:11:30;61.90;;;23.40;;
76136;SDS011;68622;53.128;17.966;2023-04-06T04:13:58;53.40;;;23.40;;
76136;SDS011;68622;53.128;17.966;2023-04-06T04:16:24;58.90;;;23.10;;
76136;SDS011;68622;53.128;17.966;2023-04-06T04:18:51;64.30;;;24.20;;
76136;SDS011;68622;53.128;17.966;2023-04-06T04:21:17;57.00;;;24.70;;
76136;SDS011;68622;53.128;17.966;2023-04-06T04:23:44;64.20;;;23.70;;
76136;SDS011;68622;53.128;17.966;2023-04-06T04:26:11;52.90;;;22.90;;
76136;SDS011;68622;53.128;17.966;2023-04-06T04:28:38;61.90;;;23.90;;
76136;SDS011;68622;53.128;17.966;2023-04-06T04:31:04;50.00;;;21.00;;
76136;SDS011;68622;53.128;17.966;2023-04-06T04:33:32;50.60;;;20.50;;
76136;SDS011;68622;53.128;17.966;2023-04-06T04:36:00;44.80;;;19.40;;
76136;SDS011;68622;53.128;17.966;2023-04-06T04:38:27;45.30;;;18.60;;
76136;SDS011;68622;53.128;17.966;2023-04-06T04:40:55;42.40;;;17.80;;
76136;SDS011;68622;53.128;17.966;2023-04-06T04:43:22;43.70;;;19.10;;
76136;SDS011;68622;53.128;17.966;2023-04-06T04:45:49;47.10;;;19.40;;
76136;SDS011;68622;53.128;17.966;2023-04-06T04:48:26;49.70;;;21.60;;
76136;SDS011;68622;53.128;17.966;2023-04-06T04:50:57;49.70;;;20.80;;
76136;SDS011;68622;53.128;17.966;2023-04-06T04:53:26;52.00;;;20.00;;
76136;SDS011;68622;53.128;17.966;2023-04-06T04:55:56;40.10;;;16.70;;
76136;SDS011;68622;53.128;17.966;2023-04-06T04:58:23;43.00;;;19.50;;
76136;SDS011;68622;53.128;17.966;2023-04-06T05:00:54;44.00;;;19.10;;
76136;SDS011;68622;53.128;17.966;2023-04-06T05:03:21;45.20;;;19.30;;
76136;SDS011;68622;53.128;17.966;2023-04-06T05:05:56;50.30;;;23.40;;
76136;SDS011;68622;53.128;17.966;2023-04-06T05:08:25;43.10;;;21.20;;
76136;SDS011;68622;53.128;17.966;2023-04-06T05:10:52;46.00;;;18.70;;
76136;SDS011;68622;53.128;17.966;2023-04-06T05:13:19;40.00;;;18.30;;
76136;SDS011;68622;53.128;17.966;2023-04-06T05:15:46;51.70;;;21.30;;
76136;SDS011;68622;53.128;17.966;2023-04-06T05:18:21;45.30;;;19.50;;
76136;SDS011;68622;53.128;17.966;2023-04-06T05:20:48;47.40;;;21.60;;
76136;SDS011;68622;53.128;17.966;2023-04-06T05:23:14;49.40;;;20.70;;
76136;SDS011;68622;53.128;17.966;2023-04-06T05:25:41;51.40;;;22.80;;
76136;SDS011;68622;53.128;17.966;2023-04-06T05:28:15;48.40;;;24.00;;
76136;SDS011;68622;53.128;17.966;2023-04-06T05:30:42;50.10;;;24.60;;
76136;SDS011;68622;53.128;17.966;2023-04-06T05:33:10;49.70;;;22.30;;
76136;SDS011;68622;53.128;17.966;2023-04-06T05:35:48;54.00;;;22.90;;
76136;SDS011;68622;53.128;17.966;2023-04-06T05:38:14;51.60;;;22.90;;
76136;SDS011;68622;53.128;17.966;2023-04-06T05:40:41;54.00;;;25.20;;
76136;SDS011;68622;53.128;17.966;2023-04-06T05:43:11;49.20;;;21.90;;
76136;SDS011;68622;53.128;17.966;2023-04-06T05:45:39;51.90;;;24.50;;
76136;SDS011;68622;53.128;17.966;2023-04-06T05:48:06;62.40;;;25.40;;
76136;SDS011;68622;53.128;17.966;2023-04-06T05:50:33;52.50;;;23.00;;
76136;SDS011;68622;53.128;17.966;2023-04-06T05:53:00;53.60;;;25.10;;
76136;SDS011;68622;53.128;17.966;2023-04-06T05:55:31;58.90;;;27.30;;
76136;SDS011;68622;53.128;17.966;2023-04-06T05:58:09;57.20;;;29.40;;
76136;SDS011;68622;53.128;17.966;2023-04-06T06:00:36;57.40;;;27.50;;
76136;SDS011;68622;53.128;17.966;2023-04-06T06:03:04;57.40;;;24.10;;
76136;SDS011;68622;53.128;17.966;2023-04-06T06:05:32;55.10;;;26.10;;
76136;SDS011;68622;53.128;17.966;2023-04-06T06:08:04;81.30;;;38.00;;
76136;SDS011;68622;53.128;17.966;2023-04-06T06:10:31;63.80;;;28.60;;
76136;SDS011;68622;53.128;17.966;2023-04-06T06:12:58;64.30;;;29.70;;
76136;SDS011;68622;53.128;17.966;2023-04-06T06:15:24;67.90;;;29.70;;
76136;SDS011;68622;53.128;17.966;2023-04-06T06:17:52;59.90;;;26.90;;
76136;SDS011;68622;53.128;17.966;2023-04-06T06:20:19;76.20;;;35.60;;
76136;SDS011;68622;53.128;17.966;2023-04-06T06:22:47;76.60;;;32.20;;
76136;SDS011;68622;53.128;17.966;2023-04-06T06:25:17;74.80;;;31.70;;
76136;SDS011;68622;53.128;17.966;2023-04-06T06:27:45;58.90;;;27.70;;
76136;SDS011;68622;53.128;17.966;2023-04-06T06:30:12;67.00;;;30.10;;
76136;SDS011;68622;53.128;17.966;2023-04-06T06:32:40;57.60;;;26.90;;
76136;SDS011;68622;53.128;17.966;2023-04-06T06:35:07;73.90;;;31.40;;
76136;SDS011;68622;53.128;17.966;2023-04-06T06:37:34;73.00;;;31.30;;
76136;SDS011;68622;53.128;17.966;2023-04-06T06:40:01;74.40;;;30.10;;
76136;SDS011;68622;53.128;17.966;2023-04-06T06:42:30;61.10;;;26.70;;
76136;SDS011;68622;53.128;17.966;2023-04-06T06:45:06;53.60;;;24.70;;
76136;SDS011;68622;53.128;17.966;2023-04-06T06:47:35;55.60;;;24.40;;
76136;SDS011;68622;53.128;17.966;2023-04-06T06:50:02;47.30;;;21.40;;
76136;SDS011;68622;53.128;17.966;2023-04-06T06:52:29;61.40;;;25.90;;
76136;SDS011;68622;53.128;17.966;2023-04-06T06:54:56;60.60;;;26.70;;
76136;SDS011;68622;53.128;17.966;2023-04-06T06:57:22;60.40;;;25.20;;
76136;SDS011;68622;53.128;17.966;2023-04-06T06:59:50;54.70;;;25.30;;
76136;SDS011;68622;53.128;17.966;2023-04-06T07:02:18;61.50;;;27.20;;
76136;SDS011;68622;53.128;17.966;2023-04-06T07:04:47;70.60;;;28.30;;
76136;SDS011;68622;53.128;17.966;2023-04-06T07:07:15;62.90;;;28.20;;
76136;SDS011;68622;53.128;17.966;2023-04-06T07:09:41;62.20;;;26.50;;
76136;SDS011;68622;53.128;17.966;2023-04-06T07:12:08;62.80;;;26.60;;
76136;SDS011;68622;53.128;17.966;2023-04-06T07:14:34;63.20;;;23.60;;
76136;SDS011;68622;53.128;17.966;2023-04-06T07:17:03;58.20;;;27.20;;
76136;SDS011;68622;53.128;17.966;2023-04-06T07:19:29;46.40;;;20.00;;
76136;SDS011;68622;53.128;17.966;2023-04-06T07:21:56;50.60;;;24.30;;
76136;SDS011;68622;53.128;17.966;2023-04-06T07:24:23;52.80;;;22.30;;
76136;SDS011;68622;53.128;17.966;2023-04-06T07:26:50;51.40;;;23.60;;
76136;SDS011;68622;53.128;17.966;2023-04-06T07:29:17;42.10;;;19.90;;
76136;SDS011;68622;53.128;17.966;2023-04-06T07:31:44;51.50;;;22.20;;
76136;SDS011;68622;53.128;17.966;2023-04-06T07:34:12;44.60;;;20.80;;
76136;SDS011;68622;53.128;17.966;2023-04-06T07:36:39;44.50;;;19.80;;
76136;SDS011;68622;53.128;17.966;2023-04-06T07:39:06;49.40;;;20.00;;
76136;SDS011;68622;53.128;17.966;2023-04-06T07:41:34;42.00;;;18.70;;
76136;SDS011;68622;53.128;17.966;2023-04-06T07:44:01;34.30;;;17.50;;
76136;SDS011;68622;53.128;17.966;2023-04-06T07:46:28;34.10;;;15.70;;
76136;SDS011;68622;53.128;17.966;2023-04-06T07:48:56;30.70;;;15.20;;
76136;SDS011;68622;53.128;17.966;2023-04-06T07:51:24;30.10;;;12.50;;
76136;SDS011;68622;53.128;17.966;2023-04-06T07:53:52;30.00;;;14.30;;
76136;SDS011;68622;53.128;17.966;2023-04-06T07:56:18;26.60;;;11.30;;
76136;SDS011;68622;53.128;17.966;2023-04-06T07:58:45;27.10;;;12.40;;
76136;SDS011;68622;53.128;17.966;2023-04-06T08:01:11;30.60;;;10.50;;
76136;SDS011;68622;53.128;17.966;2023-04-06T08:03:39;29.40;;;13.40;;
76136;SDS011;68622;53.128;17.966;2023-04-06T08:06:06;25.50;;;11.80;;
76136;SDS011;68622;53.128;17.966;2023-04-06T08:08:32;28.70;;;12.60;;
76136;SDS011;68622;53.128;17.966;2023-04-06T08:10:59;23.20;;;11.30;;
76136;SDS011;68622;53.128;17.966;2023-04-06T08:13:26;16.30;;;6.30;;
76136;SDS011;68622;53.128;17.966;2023-04-06T08:15:54;15.20;;;5.20;;
76136;SDS011;68622;53.128;17.966;2023-04-06T08:18:21;23.20;;;9.10;;
76136;SDS011;68622;53.128;17.966;2023-04-06T08:20:47;13.50;;;7.10;;
76136;SDS011;68622;53.128;17.966;2023-04-06T08:23:15;14.30;;;6.10;;
76136;SDS011;68622;53.128;17.966;2023-04-06T08:25:42;12.00;;;4.80;;
76136;SDS011;68622;53.128;17.966;2023-04-06T08:28:10;9.80;;;3.90;;
76136;SDS011;68622;53.128;17.966;2023-04-06T08:30:39;9.80;;;4.00;;
76136;SDS011;68622;53.128;17.966;2023-04-06T08:33:07;11.40;;;3.50;;
76136;SDS011;68622;53.128;17.966;2023-04-06T08:35:33;8.90;;;3.80;;
76136;SDS011;68622;53.128;17.966;2023-04-06T08:38:00;9.30;;;3.10;;
76136;SDS011;68622;53.128;17.966;2023-04-06T08:40:27;9.60;;;3.50;;
76136;SDS011;68622;53.128;17.966;2023-04-06T08:42:55;11.10;;;3.90;;
76136;SDS011;68622;53.128;17.966;2023-04-06T08:45:22;11.20;;;4.10;;
76136;SDS011;68622;53.128;17.966;2023-04-06T08:47:52;10.20;;;4.10;;
76136;SDS011;68622;53.128;17.966;2023-04-06T08:50:20;9.50;;;3.60;;
76136;SDS011;68622;53.128;17.966;2023-04-06T08:52:48;8.80;;;3.70;;
76136;SDS011;68622;53.128;17.966;2023-04-06T08:55:15;9.50;;;4.10;;
76136;SDS011;68622;53.128;17.966;2023-04-06T08:57:42;9.60;;;3.80;;
76136;SDS011;68622;53.128;17.966;2023-04-06T09:00:10;9.40;;;3.80;;
76136;SDS011;68622;53.128;17.966;2023-04-06T09:02:42;10.80;;;4.10;;
76136;SDS011;68622;53.128;17.966;2023-04-06T09:05:10;9.10;;;3.80;;
76136;SDS011;68622;53.128;17.966;2023-04-06T09:07:37;10.30;;;4.10;;
76136;SDS011;68622;53.128;17.966;2023-04-06T09:10:04;11.30;;;4.10;;
76136;SDS011;68622;53.128;17.966;2023-04-06T09:12:32;7.10;;;3.10;;
76136;SDS011;68622;53.128;17.966;2023-04-06T09:14:59;11.00;;;3.30;;
76136;SDS011;68622;53.128;17.966;2023-04-06T09:17:28;9.50;;;3.70;;
76136;SDS011;68622;53.128;17.966;2023-04-06T09:19:56;8.70;;;3.70;;
76136;SDS011;68622;53.128;17.966;2023-04-06T09:22:23;9.80;;;4.00;;
76136;SDS011;68622;53.128;17.966;2023-04-06T09:24:52;10.20;;;4.50;;
76136;SDS011;68622;53.128;17.966;2023-04-06T09:27:29;8.80;;;4.50;;
76136;SDS011;68622;53.128;17.966;2023-04-06T09:30:04;9.80;;;5.00;;
76136;SDS011;68622;53.128;17.966;2023-04-06T09:32:46;12.30;;;4.70;;
76136;SDS011;68622;53.128;17.966;2023-04-06T09:35:17;8.20;;;4.30;;
76136;SDS011;68622;53.128;17.966;2023-04-06T09:37:51;9.90;;;4.70;;
76136;SDS011;68622;53.128;17.966;2023-04-06T09:40:18;11.80;;;5.70;;
76136;SDS011;68622;53.128;17.966;2023-04-06T09:42:47;9.20;;;4.20;;
76136;SDS011;68622;53.128;17.966;2023-04-06T09:45:18;10.50;;;5.10;;
76136;SDS011;68622;53.128;17.966;2023-04-06T09:47:45;11.00;;;4.70;;
76136;SDS011;68622;53.128;17.966;2023-04-06T09:50:12;12.80;;;6.00;;
76136;SDS011;68622;53.128;17.966;2023-04-06T09:52:41;11.20;;;5.10;;
76136;SDS011;68622;53.128;17.966;2023-04-06T09:55:20;8.80;;;4.10;;
76136;SDS011;68622;53.128;17.966;2023-04-06T09:58:09;8.70;;;4.10;;
76136;SDS011;68622;53.128;17.966;2023-04-06T10:03:31;11.00;;;4.10;;
76136;SDS011;68622;53.128;17.966;2023-04-06T10:06:05;10.10;;;4.90;;
76136;SDS011;68622;53.128;17.966;2023-04-06T10:08:37;13.50;;;5.80;;
76136;SDS011;68622;53.128;17.966;2023-04-06T10:11:08;9.50;;;4.20;;
76136;SDS011;68622;53.128;17.966;2023-04-06T10:13:35;10.60;;;4.70;;
76136;SDS011;68622;53.128;17.966;2023-04-06T10:16:02;9.80;;;5.00;;
76136;SDS011;68622;53.128;17.966;2023-04-06T10:18:31;12.70;;;6.10;;
76136;SDS011;68622;53.128;17.966;2023-04-06T10:21:09;12.30;;;6.90;;
76136;SDS011;68622;53.128;17.966;2023-04-06T10:23:46;8.50;;;4.70;;
76136;SDS011;68622;53.128;17.966;2023-04-06T10:26:16;11.10;;;4.70;;
76136;SDS011;68622;53.128;17.966;2023-04-06T10:28:47;9.30;;;3.70;;
76136;SDS011;68622;53.128;17.966;2023-04-06T10:31:15;10.90;;;3.50;;
76136;SDS011;68622;53.128;17.966;2023-04-06T10:33:54;8.70;;;3.90;;
76136;SDS011;68622;53.128;17.966;2023-04-06T10:36:22;9.60;;;4.40;;
76136;SDS011;68622;53.128;17.966;2023-04-06T10:39:02;8.20;;;3.40;;
76136;SDS011;68622;53.128;17.966;2023-04-06T10:41:46;7.90;;;3.50;;
76136;SDS011;68622;53.128;17.966;2023-04-06T10:44:19;9.20;;;3.80;;
76136;SDS011;68622;53.128;17.966;2023-04-06T10:46:58;9.20;;;4.10;;
76136;SDS011;68622;53.128;17.966;2023-04-06T10:49:29;8.60;;;3.80;;
76136;SDS011;68622;53.128;17.966;2023-04-06T10:51:56;10.90;;;4.50;;
76136;SDS011;68622;53.128;17.966;2023-04-06T10:54:23;9.30;;;4.10;;
76136;SDS011;68622;53.128;17.966;2023-04-06T10:56:52;8.80;;;3.40;;
76136;SDS011;68622;53.128;17.966;2023-04-06T10:59:19;10.90;;;4.00;;
76136;SDS011;68622;53.128;17.966;2023-04-06T11:01:47;8.50;;;3.70;;
76136;SDS011;68622;53.128;17.966;2023-04-06T11:04:17;7.30;;;3.40;;
76136;SDS011;68622;53.128;17.966;2023-04-06T11:06:47;8.60;;;3.30;;
76136;SDS011;68622;53.128;17.966;2023-04-06T11:09:29;8.50;;;3.40;;
76136;SDS011;68622;53.128;17.966;2023-04-06T11:11:57;7.90;;;3.30;;
76136;SDS011;68622;53.128;17.966;2023-04-06T11:14:24;7.50;;;3.00;;
76136;SDS011;68622;53.128;17.966;2023-04-06T11:16:52;7.50;;;3.30;;
76136;SDS011;68622;53.128;17.966;2023-04-06T11:19:19;9.70;;;3.60;;
76136;SDS011;68622;53.128;17.966;2023-04-06T11:21:46;10.40;;;4.50;;
76136;SDS011;68622;53.128;17.966;2023-04-06T11:24:16;8.40;;;3.00;;
76136;SDS011;68622;53.128;17.966;2023-04-06T11:26:50;10.10;;;3.30;;
76136;SDS011;68622;53.128;17.966;2023-04-06T11:29:30;9.40;;;2.70;;
76136;SDS011;68622;53.128;17.966;2023-04-06T11:31:59;7.60;;;3.00;;
76136;SDS011;68622;53.128;17.966;2023-04-06T11:34:28;7.60;;;3.10;;
76136;SDS011;68622;53.128;17.966;2023-04-06T11:36:59;8.20;;;3.90;;
76136;SDS011;68622;53.128;17.966;2023-04-06T11:39:28;7.60;;;3.10;;
76136;SDS011;68622;53.128;17.966;2023-04-06T11:41:59;7.70;;;3.40;;
76136;SDS011;68622;53.128;17.966;2023-04-06T11:47:01;7.60;;;3.30;;
76136;SDS011;68622;53.128;17.966;2023-04-06T11:49:29;8.20;;;3.00;;
76136;SDS011;68622;53.128;17.966;2023-04-06T11:51:57;12.30;;;4.00;;
76136;SDS011;68622;53.128;17.966;2023-04-06T11:54:35;9.30;;;3.20;;
76136;SDS011;68622;53.128;17.966;2023-04-06T11:57:04;9.90;;;3.20;;
76136;SDS011;68622;53.128;17.966;2023-04-06T11:59:32;8.50;;;3.80;;
76136;SDS011;68622;53.128;17.966;2023-04-06T12:01:59;7.80;;;3.00;;
76136;SDS011;68622;53.128;17.966;2023-04-06T12:04:25;9.00;;;4.10;;
76136;SDS011;68622;53.128;17.966;2023-04-06T12:06:52;11.90;;;5.30;;
76136;SDS011;68622;53.128;17.966;2023-04-06T12:09:19;7.60;;;3.20;;
76136;SDS011;68622;53.128;17.966;2023-04-06T12:11:46;7.70;;;2.90;;
76136;SDS011;68622;53.128;17.966;2023-04-06T12:14:12;8.70;;;3.50;;
76136;SDS011;68622;53.128;17.966;2023-04-06T12:16:40;8.30;;;3.00;;
76136;SDS011;68622;53.128;17.966;2023-04-06T12:19:07;8.60;;;3.60;;
76136;SDS011;68622;53.128;17.966;2023-04-06T12:21:34;9.10;;;3.50;;
76136;SDS011;68622;53.128;17.966;2023-04-06T12:24:03;10.00;;;3.60;;
76136;SDS011;68622;53.128;17.966;2023-04-06T12:26:31;8.80;;;4.20;;
76136;SDS011;68622;53.128;17.966;2023-04-06T12:28:58;9.20;;;3.60;;
76136;SDS011;68622;53.128;17.966;2023-04-06T12:31:35;6.60;;;2.80;;
76136;SDS011;68622;53.128;17.966;2023-04-06T12:34:03;10.20;;;3.90;;
76136;SDS011;68622;53.128;17.966;2023-04-06T12:36:29;6.30;;;2.70;;
76136;SDS011;68622;53.128;17.966;2023-04-06T12:38:57;8.50;;;3.20;;
76136;SDS011;68622;53.128;17.966;2023-04-06T12:41:24;8.40;;;3.40;;
76136;SDS011;68622;53.128;17.966;2023-04-06T12:43:51;10.60;;;3.20;;
76136;SDS011;68622;53.128;17.966;2023-04-06T12:46:18;9.20;;;4.20;;
76136;SDS011;68622;53.128;17.966;2023-04-06T12:48:45;11.80;;;3.80;;
76136;SDS011;68622;53.128;17.966;2023-04-06T12:51:11;9.30;;;3.50;;
76136;SDS011;68622;53.128;17.966;2023-04-06T12:53:38;8.80;;;3.20;;
76136;SDS011;68622;53.128;17.966;2023-04-06T12:56:15;10.10;;;3.40;;
76136;SDS011;68622;53.128;17.966;2023-04-06T12:58:44;8.00;;;2.80;;
76136;SDS011;68622;53.128;17.966;2023-04-06T13:01:11;8.50;;;3.20;;
76136;SDS011;68622;53.128;17.966;2023-04-06T13:03:39;8.30;;;3.30;;
76136;SDS011;68622;53.128;17.966;2023-04-06T13:06:07;8.70;;;3.40;;
76136;SDS011;68622;53.128;17.966;2023-04-06T13:08:35;9.20;;;3.80;;
76136;SDS011;68622;53.128;17.966;2023-04-06T13:11:05;8.20;;;3.70;;
76136;SDS011;68622;53.128;17.966;2023-04-06T13:13:34;9.80;;;3.80;;
76136;SDS011;68622;53.128;17.966;2023-04-06T13:16:02;10.20;;;3.90;;
76136;SDS011;68622;53.128;17.966;2023-04-06T13:18:31;10.70;;;3.20;;
76136;SDS011;68622;53.128;17.966;2023-04-06T13:20:58;10.70;;;4.10;;
76136;SDS011;68622;53.128;17.966;2023-04-06T13:23:26;11.10;;;4.00;;
76136;SDS011;68622;53.128;17.966;2023-04-06T13:25:59;11.60;;;4.10;;
76136;SDS011;68622;53.128;17.966;2023-04-06T13:28:31;7.90;;;3.60;;
76136;SDS011;68622;53.128;17.966;2023-04-06T13:30:59;9.50;;;4.10;;
76136;SDS011;68622;53.128;17.966;2023-04-06T13:33:28;12.10;;;4.20;;
76136;SDS011;68622;53.128;17.966;2023-04-06T13:35:56;9.30;;;3.70;;
76136;SDS011;68622;53.128;17.966;2023-04-06T13:38:23;9.60;;;4.60;;
76136;SDS011;68622;53.128;17.966;2023-04-06T13:40:50;11.40;;;4.50;;
76136;SDS011;68622;53.128;17.966;2023-04-06T13:43:17;10.80;;;4.00;;
76136;SDS011;68622;53.128;17.966;2023-04-06T13:45:50;10.50;;;4.20;;
76136;SDS011;68622;53.128;17.966;2023-04-06T13:48:18;8.30;;;3.80;;
76136;SDS011;68622;53.128;17.966;2023-04-06T13:50:45;9.10;;;4.50;;
76136;SDS011;68622;53.128;17.966;2023-04-06T13:53:13;9.30;;;3.90;;
76136;SDS011;68622;53.128;17.966;2023-04-06T13:55:40;10.90;;;4.50;;
76136;SDS011;68622;53.128;17.966;2023-04-06T13:58:07;12.00;;;4.60;;
76136;SDS011;68622;53.128;17.966;2023-04-06T14:00:33;10.00;;;4.40;;
76136;SDS011;68622;53.128;17.966;2023-04-06T14:03:00;9.80;;;4.00;;
76136;SDS011;68622;53.128;17.966;2023-04-06T14:05:30;9.30;;;4.10;;
76136;SDS011;68622;53.128;17.966;2023-04-06T14:07:58;11.50;;;3.90;;
76136;SDS011;68622;53.128;17.966;2023-04-06T14:10:24;9.20;;;4.20;;
76136;SDS011;68622;53.128;17.966;2023-04-06T14:12:53;9.40;;;4.40;;
76136;SDS011;68622;53.128;17.966;2023-04-06T14:15:20;10.80;;;4.90;;
76136;SDS011;68622;53.128;17.966;2023-04-06T14:17:48;11.70;;;4.50;;
76136;SDS011;68622;53.128;17.966;2023-04-06T14:20:15;8.60;;;3.70;;
76136;SDS011;68622;53.128;17.966;2023-04-06T14:22:42;10.40;;;4.70;;
76136;SDS011;68622;53.128;17.966;2023-04-06T14:25:09;11.50;;;4.70;;
76136;SDS011;68622;53.128;17.966;2023-04-06T14:27:37;10.40;;;4.70;;
76136;SDS011;68622;53.128;17.966;2023-04-06T14:30:04;9.60;;;4.90;;
76136;SDS011;68622;53.128;17.966;2023-04-06T14:32:31;9.00;;;3.90;;